Hauptseite
METAR-TAF:

METAR-TAF

Flughäfen :

Flughafen Kopenhagen-Kastrup

Kopenhagen, Dänemark

Breite: 55-37N, Länge: 012-39E, Höhe: 5 m

Beobachtung

Neuester Wetterbericht von vor 25 Minuten, um 09:20 UTC
Wind 8 kt aus Süd/Südwest
Temperatur 20°C
Luftfeuchtigkeit 83%
Luftdruck 1015 hPa
Sichtweite 10 km oder mehr
keine Wolken unter 1500 m und keine Kumulonimbus oder Gewitterwolken

METAR: EKCH 190920Z 21008KT CAVOK 20/17 Q1015 NOSIG

Zeit: 11:45 (09:45 UTC)

Prognose

Neuester Wetterbericht von vor 4 Stunden und 10 Minuten, um 05:35 UTC
Gültige Prognose vom 19 um 06 UTC bis 20 um 06 UTC
Wind 8 kt aus Süd/Südwest
Sichtweite 10 km oder mehr
Durchbrochene Bewölkung in der Höhe von 700 ft
Übergehend zu
vom 19 um 06 UTC bis 19 um 08 UTC
Aufgelockert bewölkt in der Höhe von 2000 ft

TAF: EKCH 190535Z 1906/2006 21008KT 9999 BKN007 BECMG 1906/1908 SCT020

Wetterbeobachtungen und Prognosen von mehr als 4000 Flughäfen (METAR und TAF Bericht).

Die verfügbaren Stationen werden durch gelbe und rote Markierungen auf der Karte dargestellt.

Führen Sie die Maus auf sie, um den Namen der Station zu sehen.

Darauf klicken, um die Beobachtung von Wetterbeobachtungen und Prognosen zu sehen.

Um die Karte zu ändern : klicken Sie auf den grünen Tasten mit einem schwarzen Kreuz Zum Vergrößern, auf den grünen Button mit einem Gedankenstrich zu verkleinern, oder auf die grünen Pfeile für benachbarte Karten.


METAR-TAF: